createdAt,value
2023-01-19T00:01:34.280Z,0.93
2023-01-19T00:04:51.361Z,0.92
2023-01-19T00:08:09.992Z,0.95
2023-01-19T00:11:26.623Z,1.02
2023-01-19T00:14:42.878Z,0.96
2023-01-19T00:17:59.377Z,0.85
2023-01-19T00:21:16.604Z,0.69
2023-01-19T00:24:33.635Z,0.74
2023-01-19T00:27:51.251Z,0.74
2023-01-19T00:31:07.897Z,0.72
2023-01-19T00:34:27.695Z,0.76
2023-01-19T00:37:46.041Z,0.83
2023-01-19T00:41:03.152Z,0.85
2023-01-19T00:44:20.978Z,0.83
2023-01-19T00:47:40.053Z,0.81
2023-01-19T00:50:58.225Z,0.83
2023-01-19T00:54:14.532Z,0.89
2023-01-19T00:57:30.858Z,0.88
2023-01-19T01:00:47.123Z,0.86
2023-01-19T01:04:03.620Z,0.89
2023-01-19T01:07:19.943Z,0.94
2023-01-19T01:10:38.164Z,0.97
2023-01-19T01:13:54.431Z,0.96
2023-01-19T01:17:12.114Z,0.95
2023-01-19T01:20:31.802Z,0.96
2023-01-19T01:23:48.099Z,0.90
2023-01-19T01:27:04.664Z,0.82
2023-01-19T01:30:23.665Z,0.80
2023-01-19T01:33:42.008Z,0.76
2023-01-19T01:36:58.921Z,0.76
2023-01-19T01:40:22.137Z,0.74
2023-01-19T01:43:54.228Z,0.75
2023-01-19T01:47:11.436Z,0.80
2023-01-19T01:50:32.462Z,0.84
2023-01-19T01:53:50.615Z,0.80
2023-01-19T01:57:12.138Z,0.83
2023-01-19T02:00:37.159Z,0.89
2023-01-19T02:03:53.484Z,0.91
2023-01-19T02:07:23.714Z,0.86
2023-01-19T02:10:54.521Z,0.88
2023-01-19T02:14:13.892Z,0.84
2023-01-19T02:17:30.820Z,0.92
2023-01-19T02:20:51.946Z,0.96
2023-01-19T02:24:10.899Z,0.94
2023-01-19T02:27:28.697Z,0.92
2023-01-19T02:30:47.236Z,0.93
2023-01-19T02:34:05.690Z,0.92
2023-01-19T02:37:24.219Z,0.92
2023-01-19T02:40:41.725Z,0.95
2023-01-19T02:43:59.807Z,0.94
2023-01-19T02:47:16.296Z,0.89
2023-01-19T02:50:58.187Z,0.89
2023-01-19T02:54:51.765Z,0.82
2023-01-19T02:58:13.701Z,0.90
2023-01-19T03:01:36.392Z,0.88
2023-01-19T03:05:04.982Z,0.94
2023-01-19T03:08:27.394Z,1.01
2023-01-19T03:11:47.564Z,1.06
2023-01-19T03:15:07.685Z,1.09
2023-01-19T03:18:28.811Z,1.06
2023-01-19T03:21:51.088Z,1.07
2023-01-19T03:25:09.541Z,1.09
2023-01-19T03:28:28.954Z,1.05
2023-01-19T03:31:49.578Z,1.05
2023-01-19T03:35:11.254Z,1.05
2023-01-19T03:38:32.407Z,1.06
2023-01-19T03:41:51.023Z,1.02
2023-01-19T03:45:10.914Z,1.04
2023-01-19T03:48:28.157Z,0.98
2023-01-19T03:51:47.351Z,0.94
2023-01-19T03:55:04.695Z,1.04
2023-01-19T03:58:21.299Z,1.17
2023-01-19T04:01:37.785Z,1.18
2023-01-19T04:04:54.260Z,1.20
2023-01-19T04:08:14.485Z,1.20
2023-01-19T04:11:34.115Z,1.27
2023-01-19T04:14:50.493Z,1.31
2023-01-19T04:18:09.445Z,1.31
2023-01-19T04:21:27.178Z,1.27
2023-01-19T04:24:43.918Z,1.24
2023-01-19T04:28:03.382Z,1.31
2023-01-19T04:31:20.096Z,1.36
2023-01-19T04:34:36.295Z,1.40
2023-01-19T04:37:52.638Z,1.21
2023-01-19T04:41:09.021Z,1.27
2023-01-19T04:44:25.242Z,1.26
2023-01-19T04:47:43.313Z,1.37
2023-01-19T04:51:00.763Z,1.44
2023-01-19T04:54:17.100Z,1.22
2023-01-19T04:57:33.358Z,1.24
2023-01-19T05:00:49.734Z,1.32
2023-01-19T05:04:09.252Z,1.33
2023-01-19T05:07:23.035Z,1.38
2023-01-19T05:10:39.101Z,1.35
2023-01-19T05:13:55.264Z,1.31
2023-01-19T05:17:11.466Z,1.29
2023-01-19T05:20:28.250Z,1.29
2023-01-19T05:23:44.453Z,1.32
2023-01-19T05:27:01.010Z,1.23
2023-01-19T05:30:20.340Z,1.12
2023-01-19T05:33:36.725Z,1.18
2023-01-19T05:36:53.356Z,1.20
2023-01-19T05:40:09.920Z,1.21
2023-01-19T05:43:28.687Z,1.13
2023-01-19T05:46:45.257Z,1.18
2023-01-19T05:50:04.651Z,1.22
2023-01-19T05:53:21.473Z,1.24
2023-01-19T05:56:39.517Z,1.22
2023-01-19T05:59:55.917Z,1.26
2023-01-19T06:03:12.066Z,1.38
2023-01-19T06:06:28.488Z,1.45
2023-01-19T06:09:44.931Z,1.48
2023-01-19T06:13:01.607Z,1.50
2023-01-19T06:16:20.065Z,1.51
2023-01-19T06:19:37.648Z,1.53
2023-01-19T06:22:54.691Z,1.55
2023-01-19T06:26:11.688Z,1.56
2023-01-19T06:29:29.447Z,1.52
2023-01-19T06:32:46.151Z,1.53
2023-01-19T06:36:03.326Z,1.51
2023-01-19T06:39:20.858Z,1.41
2023-01-19T06:42:38.320Z,1.34
2023-01-19T06:45:56.979Z,1.27
2023-01-19T06:49:13.522Z,1.21
2023-01-19T06:52:29.981Z,1.14
2023-01-19T06:55:46.278Z,1.09
2023-01-19T06:59:02.927Z,0.99
2023-01-19T07:02:26.913Z,0.94
2023-01-19T07:05:41.952Z,0.91
2023-01-19T07:08:58.758Z,0.88
2023-01-19T07:12:25.395Z,0.74
2023-01-19T07:15:43.067Z,0.61
2023-01-19T07:18:59.535Z,0.64
2023-01-19T07:22:16.206Z,0.67
2023-01-19T07:25:49.749Z,0.67
2023-01-19T07:29:08.010Z,0.72
2023-01-19T07:32:27.990Z,0.61
2023-01-19T07:35:44.244Z,0.66
2023-01-19T07:39:01.152Z,0.61
2023-01-19T07:42:21.202Z,0.70
2023-01-19T07:45:38.014Z,0.83
2023-01-19T07:49:07.438Z,0.87
2023-01-19T07:52:24.654Z,0.94
2023-01-19T07:55:41.339Z,1.03
2023-01-19T07:59:00.205Z,1.09
2023-01-19T08:02:20.356Z,1.06
2023-01-19T08:05:37.735Z,0.89
2023-01-19T08:08:55.447Z,0.96
2023-01-19T08:12:12.979Z,1.00
2023-01-19T08:15:30.861Z,0.96
2023-01-19T08:18:47.249Z,0.96
2023-01-19T08:22:12.171Z,1.01
2023-01-19T08:25:30.229Z,1.05
2023-01-19T08:28:46.465Z,1.09
2023-01-19T08:32:19.379Z,1.00
2023-01-19T08:35:51.065Z,1.11
2023-01-19T08:39:13.218Z,1.13
2023-01-19T08:42:32.737Z,1.20
2023-01-19T08:45:54.287Z,1.27
2023-01-19T08:49:10.633Z,1.33
2023-01-19T08:52:30.162Z,1.24
2023-01-19T08:55:47.289Z,1.16
2023-01-19T08:59:09.967Z,1.08
2023-01-19T09:02:27.807Z,0.98
2023-01-19T09:05:46.468Z,0.95
2023-01-19T09:09:02.819Z,0.98
2023-01-19T09:12:19.228Z,1.01
2023-01-19T09:15:38.390Z,1.00
2023-01-19T09:18:54.892Z,1.01
2023-01-19T09:22:11.032Z,0.86
2023-01-19T09:25:27.518Z,0.82
2023-01-19T09:28:44.987Z,0.82
2023-01-19T09:32:01.086Z,0.83
2023-01-19T09:35:18.782Z,0.70
2023-01-19T09:38:36.603Z,0.67
2023-01-19T09:41:57.413Z,0.74
2023-01-19T09:45:20.896Z,0.78
2023-01-19T09:48:50.586Z,0.85
2023-01-19T09:52:08.897Z,0.78
2023-01-19T09:55:31.554Z,0.76
2023-01-19T09:58:51.176Z,0.69
2023-01-19T10:02:16.743Z,0.58
2023-01-19T10:05:39.549Z,0.56
2023-01-19T10:09:01.015Z,0.60
2023-01-19T10:12:24.081Z,0.69
2023-01-19T10:15:55.839Z,0.75
2023-01-19T10:19:23.553Z,0.71
2023-01-19T10:22:44.040Z,0.66
2023-01-19T10:26:01.109Z,0.69
2023-01-19T10:29:24.218Z,0.65
2023-01-19T10:32:47.957Z,0.67
2023-01-19T10:36:04.645Z,0.65
2023-01-19T10:39:24.517Z,0.56
2023-01-19T10:42:41.129Z,0.65
2023-01-19T10:45:59.816Z,0.65
2023-01-19T10:49:30.913Z,0.67
2023-01-19T10:52:50.462Z,0.66
2023-01-19T10:56:25.995Z,0.68
2023-01-19T10:59:46.771Z,0.72
2023-01-19T11:03:04.197Z,0.66
2023-01-19T11:06:37.257Z,0.74
2023-01-19T11:09:54.586Z,0.84
2023-01-19T11:13:17.349Z,0.85
2023-01-19T11:16:42.668Z,0.79
2023-01-19T11:20:10.271Z,0.74
2023-01-19T11:23:38.403Z,0.78
2023-01-19T11:27:01.688Z,0.73
2023-01-19T11:30:26.846Z,0.84
2023-01-19T11:33:51.897Z,0.90
2023-01-19T11:37:11.583Z,0.99
2023-01-19T11:40:28.808Z,1.13
2023-01-19T11:43:49.360Z,1.22
2023-01-19T11:47:10.625Z,1.29
2023-01-19T11:50:39.464Z,1.36
2023-01-19T11:54:00.436Z,1.41
2023-01-19T11:57:22.566Z,1.46
2023-01-19T12:00:46.691Z,1.43
2023-01-19T12:04:10.040Z,1.44
2023-01-19T12:10:47.278Z,1.49
2023-01-19T12:14:06.414Z,1.43
2023-01-19T12:17:30.014Z,1.45
2023-01-19T12:20:49.685Z,1.48
2023-01-19T12:24:19.941Z,1.50
2023-01-19T12:27:48.786Z,1.55
2023-01-19T12:31:09.952Z,1.61
2023-01-19T12:34:49.792Z,1.61
2023-01-19T12:41:40.520Z,1.60
2023-01-19T12:45:00.687Z,1.51
2023-01-19T12:48:32.416Z,1.40
2023-01-19T12:51:49.488Z,1.41
2023-01-19T12:55:23.861Z,1.42
2023-01-19T12:58:42.048Z,1.30
2023-01-19T13:02:56.453Z,1.40
2023-01-19T13:09:44.015Z,1.39
2023-01-19T13:13:25.393Z,1.33
2023-01-19T13:17:17.462Z,1.31
2023-01-19T13:20:47.164Z,1.19
2023-01-19T13:24:08.009Z,1.17
2023-01-19T13:27:43.325Z,1.09
2023-01-19T13:31:08.022Z,0.99
2023-01-19T13:34:28.793Z,0.95
2023-01-19T13:41:03.860Z,0.88
2023-01-19T13:44:24.586Z,0.82
2023-01-19T13:47:47.518Z,0.86
2023-01-19T13:56:31.135Z,0.85
2023-01-19T13:59:47.600Z,0.81
2023-01-19T14:03:08.047Z,0.77
2023-01-19T14:06:47.645Z,0.79
2023-01-19T14:10:20.524Z,0.80
2023-01-19T14:13:41.809Z,0.84
2023-01-19T14:17:00.225Z,0.85
2023-01-19T14:20:38.130Z,0.83
2023-01-19T14:24:00.139Z,0.80
2023-01-19T14:27:29.541Z,0.77
2023-01-19T14:31:00.012Z,0.75
2023-01-19T14:34:45.012Z,0.73
2023-01-19T14:41:17.852Z,0.65
2023-01-19T14:44:40.916Z,0.64
2023-01-19T14:48:07.257Z,0.66
2023-01-19T14:51:27.964Z,0.71
2023-01-19T14:56:00.555Z,0.80
2023-01-19T15:04:12.947Z,0.86
2023-01-19T15:10:50.372Z,0.88
2023-01-19T15:14:07.661Z,0.88
2023-01-19T15:17:30.916Z,0.92
2023-01-19T15:20:47.189Z,0.89
2023-01-19T15:27:24.585Z,0.89
2023-01-19T15:30:43.989Z,0.86
2023-01-19T15:34:00.947Z,0.95
2023-01-19T15:40:46.932Z,1.01
2023-01-19T15:44:11.165Z,0.95
2023-01-19T15:47:33.502Z,0.99
2023-01-19T15:50:51.192Z,1.02
2023-01-19T15:54:08.859Z,1.03
2023-01-19T15:57:26.338Z,0.98
2023-01-19T16:00:45.274Z,0.94
2023-01-19T16:04:01.698Z,0.91
2023-01-19T16:07:19.077Z,0.91
2023-01-19T16:10:35.650Z,0.89
2023-01-19T16:13:56.276Z,0.92
2023-01-19T16:17:13.039Z,0.92
2023-01-19T16:20:29.777Z,0.89
2023-01-19T16:23:46.332Z,0.89
2023-01-19T16:27:04.811Z,0.96
2023-01-19T16:30:25.053Z,0.94
2023-01-19T16:33:41.582Z,0.95
2023-01-19T16:37:01.007Z,0.96
2023-01-19T16:40:21.161Z,0.98
2023-01-19T16:43:37.456Z,0.84
2023-01-19T16:46:55.363Z,0.70
2023-01-19T16:50:14.127Z,0.72
2023-01-19T16:53:30.519Z,0.75
2023-01-19T16:56:47.277Z,0.66
2023-01-19T17:00:03.590Z,0.69
2023-01-19T17:03:20.390Z,0.75
2023-01-19T17:06:36.803Z,0.75
2023-01-19T17:09:53.016Z,0.75
2023-01-19T17:13:09.550Z,0.64
2023-01-19T17:16:26.768Z,0.68
2023-01-19T17:19:45.845Z,0.67
2023-01-19T17:23:02.491Z,0.75
2023-01-19T17:26:21.915Z,0.76
2023-01-19T17:29:40.193Z,0.78
2023-01-19T17:33:03.411Z,0.79
2023-01-19T17:36:25.900Z,0.82
2023-01-19T17:39:44.063Z,0.73
2023-01-19T17:43:00.542Z,0.71
2023-01-19T17:46:22.123Z,0.67
2023-01-19T17:49:38.861Z,0.70
2023-01-19T17:52:57.257Z,0.73
2023-01-19T17:56:17.111Z,0.70
2023-01-19T17:59:35.784Z,0.70
2023-01-19T18:02:56.872Z,0.73
2023-01-19T18:06:14.797Z,0.72
2023-01-19T18:09:32.786Z,0.71
2023-01-19T18:12:50.518Z,0.69
2023-01-19T18:16:14.721Z,0.73
2023-01-19T18:19:32.039Z,0.79
2023-01-19T18:22:48.992Z,0.85
2023-01-19T18:26:15.245Z,0.90
2023-01-19T18:29:31.910Z,0.95
2023-01-19T18:32:48.383Z,0.95
2023-01-19T18:36:08.435Z,0.97
2023-01-19T18:39:25.052Z,0.93
2023-01-19T18:42:51.027Z,0.90
2023-01-19T18:46:09.384Z,0.95
2023-01-19T18:49:33.065Z,0.96
2023-01-19T18:52:58.440Z,0.94
2023-01-19T18:56:16.996Z,0.94
2023-01-19T18:59:37.036Z,0.90
2023-01-19T19:02:51.238Z,0.92
2023-01-19T19:06:12.873Z,0.89
2023-01-19T19:09:32.358Z,0.88
2023-01-19T19:12:51.642Z,0.84
2023-01-19T19:16:18.933Z,0.78
2023-01-19T19:19:41.920Z,0.76
2023-01-19T19:22:58.751Z,0.73
2023-01-19T19:26:18.671Z,0.74
2023-01-19T19:29:44.908Z,0.74
2023-01-19T19:33:08.859Z,0.81
2023-01-19T19:36:26.021Z,0.83
2023-01-19T19:39:47.334Z,0.83
2023-01-19T19:43:08.472Z,0.81
2023-01-19T19:46:30.008Z,0.71
2023-01-19T19:49:49.302Z,0.72
2023-01-19T19:53:12.712Z,0.72
2023-01-19T19:56:31.571Z,0.68
2023-01-19T19:59:49.284Z,0.61
2023-01-19T20:03:05.630Z,0.57
2023-01-19T20:06:30.808Z,0.51
2023-01-19T20:09:48.387Z,0.48
2023-01-19T20:13:09.229Z,0.43
2023-01-19T20:16:29.080Z,0.47
2023-01-19T20:19:48.571Z,0.51
2023-01-19T20:23:05.478Z,0.50
2023-01-19T20:26:27.470Z,0.60
2023-01-19T20:29:51.467Z,0.58
2023-01-19T20:33:11.828Z,0.53
2023-01-19T20:36:36.389Z,0.52
2023-01-19T20:39:57.443Z,0.58
2023-01-19T20:43:16.107Z,0.52
2023-01-19T20:46:37.336Z,0.59
2023-01-19T20:49:54.684Z,0.63
2023-01-19T20:53:11.289Z,0.66
2023-01-19T20:56:28.284Z,0.60
2023-01-19T20:59:45.901Z,0.60
2023-01-19T21:03:02.511Z,0.59
2023-01-19T21:06:19.857Z,0.55
2023-01-19T21:09:36.598Z,0.61
2023-01-19T21:12:53.095Z,0.67
2023-01-19T21:16:12.492Z,0.70
2023-01-19T21:19:29.063Z,0.75
2023-01-19T21:22:46.467Z,0.74
2023-01-19T21:26:05.793Z,0.70
2023-01-19T21:29:19.939Z,0.71
2023-01-19T21:32:36.132Z,0.63
2023-01-19T21:36:00.210Z,0.55
2023-01-19T21:39:17.510Z,0.56
2023-01-19T21:42:34.417Z,0.54
2023-01-19T21:45:51.595Z,0.57
2023-01-19T21:49:11.577Z,0.65
2023-01-19T21:52:27.785Z,0.65
2023-01-19T21:55:46.551Z,0.47
2023-01-19T21:59:04.167Z,0.54
2023-01-19T22:02:37.740Z,0.56
2023-01-19T22:05:44.109Z,0.55
2023-01-19T22:09:01.532Z,0.54
2023-01-19T22:12:18.224Z,0.61
2023-01-19T22:15:35.980Z,0.57
2023-01-19T22:18:59.547Z,0.59
2023-01-19T22:22:15.912Z,0.63
2023-01-19T22:25:32.872Z,0.55
2023-01-19T22:28:50.838Z,0.53
2023-01-19T22:32:07.007Z,0.54
2023-01-19T22:35:25.109Z,0.53
2023-01-19T22:38:41.488Z,0.53
2023-01-19T22:41:58.079Z,0.48
2023-01-19T22:45:16.533Z,0.50
2023-01-19T22:48:32.888Z,0.51
2023-01-19T22:51:49.320Z,0.48
2023-01-19T22:55:05.659Z,0.50
2023-01-19T22:58:22.310Z,0.55
2023-01-19T23:01:42.552Z,0.57
2023-01-19T23:04:59.340Z,0.57
2023-01-19T23:08:16.345Z,0.58
2023-01-19T23:11:36.092Z,0.51
2023-01-19T23:14:53.662Z,0.47
2023-01-19T23:18:09.896Z,0.46
2023-01-19T23:21:28.886Z,0.54
2023-01-19T23:24:45.496Z,0.56
2023-01-19T23:28:01.813Z,0.59
2023-01-19T23:31:28.624Z,0.63
2023-01-19T23:34:45.310Z,0.67
2023-01-19T23:38:01.475Z,0.68
2023-01-19T23:41:18.798Z,0.63
2023-01-19T23:44:35.006Z,0.57
2023-01-19T23:47:51.593Z,0.56
2023-01-19T23:51:12.499Z,0.51
2023-01-19T23:54:28.834Z,0.47
2023-01-19T23:57:45.138Z,0.48
